sensor_id;sensor_type;location;lat;lon;timestamp;temperature;humidity
71291;DHT22;59073;51.994;4.448;2023-07-02T00:00:21;18.40;76.75
71291;DHT22;59073;51.994;4.448;2023-07-02T00:02:47;18.47;76.44
71291;DHT22;59073;51.994;4.448;2023-07-02T00:05:13;18.58;76.03
71291;DHT22;59073;51.994;4.448;2023-07-02T00:07:38;18.50;75.32
71291;DHT22;59073;51.994;4.448;2023-07-02T00:10:04;18.44;75.08
71291;DHT22;59073;51.994;4.448;2023-07-02T00:12:30;18.40;75.16
71291;DHT22;59073;51.994;4.448;2023-07-02T00:14:55;18.30;74.65
71291;DHT22;59073;51.994;4.448;2023-07-02T00:17:21;18.18;72.99
71291;DHT22;59073;51.994;4.448;2023-07-02T00:19:46;18.10;73.44
71291;DHT22;59073;51.994;4.448;2023-07-02T00:22:12;18.12;72.54
71291;DHT22;59073;51.994;4.448;2023-07-02T00:24:37;17.97;69.99
71291;DHT22;59073;51.994;4.448;2023-07-02T00:27:04;18.00;70.20
71291;DHT22;59073;51.994;4.448;2023-07-02T00:29:29;18.09;69.43
71291;DHT22;59073;51.994;4.448;2023-07-02T00:31:54;18.06;67.80
71291;DHT22;59073;51.994;4.448;2023-07-02T00:34:20;17.96;68.20
71291;DHT22;59073;51.994;4.448;2023-07-02T00:36:46;17.87;67.01
71291;DHT22;59073;51.994;4.448;2023-07-02T00:39:12;18.02;67.29
71291;DHT22;59073;51.994;4.448;2023-07-02T00:41:38;18.04;66.03
71291;DHT22;59073;51.994;4.448;2023-07-02T00:44:04;18.07;67.07
71291;DHT22;59073;51.994;4.448;2023-07-02T00:46:30;17.94;66.33
71291;DHT22;59073;51.994;4.448;2023-07-02T00:48:55;17.89;66.66
71291;DHT22;59073;51.994;4.448;2023-07-02T00:51:23;17.90;65.90
71291;DHT22;59073;51.994;4.448;2023-07-02T00:53:51;17.85;65.71
71291;DHT22;59073;51.994;4.448;2023-07-02T00:56:17;17.86;66.20
71291;DHT22;59073;51.994;4.448;2023-07-02T00:58:47;17.94;66.28
71291;DHT22;59073;51.994;4.448;2023-07-02T01:01:24;17.90;66.25
71291;DHT22;59073;51.994;4.448;2023-07-02T01:04:04;17.94;66.34
71291;DHT22;59073;51.994;4.448;2023-07-02T01:06:35;17.76;64.59
71291;DHT22;59073;51.994;4.448;2023-07-02T01:09:04;17.72;65.03
71291;DHT22;59073;51.994;4.448;2023-07-02T01:11:51;17.71;64.23
71291;DHT22;59073;51.994;4.448;2023-07-02T01:14:38;17.71;64.13
71291;DHT22;59073;51.994;4.448;2023-07-02T01:17:05;17.58;63.36
71291;DHT22;59073;51.994;4.448;2023-07-02T01:19:52;17.66;63.15
71291;DHT22;59073;51.994;4.448;2023-07-02T01:22:20;17.53;62.15
71291;DHT22;59073;51.994;4.448;2023-07-02T01:24:46;17.45;62.24
71291;DHT22;59073;51.994;4.448;2023-07-02T01:27:13;17.49;63.11
71291;DHT22;59073;51.994;4.448;2023-07-02T01:29:40;17.48;63.16
71291;DHT22;59073;51.994;4.448;2023-07-02T01:32:07;17.43;63.44
71291;DHT22;59073;51.994;4.448;2023-07-02T01:34:34;17.45;62.85
71291;DHT22;59073;51.994;4.448;2023-07-02T01:37:01;17.43;63.82
71291;DHT22;59073;51.994;4.448;2023-07-02T01:39:26;17.24;62.98
71291;DHT22;59073;51.994;4.448;2023-07-02T01:41:54;17.35;63.25
71291;DHT22;59073;51.994;4.448;2023-07-02T01:44:21;17.32;63.18
71291;DHT22;59073;51.994;4.448;2023-07-02T01:46:48;17.31;63.43
71291;DHT22;59073;51.994;4.448;2023-07-02T01:49:18;17.15;63.25
71291;DHT22;59073;51.994;4.448;2023-07-02T01:51:55;17.15;63.90
71291;DHT22;59073;51.994;4.448;2023-07-02T01:54:22;17.07;63.90
71291;DHT22;59073;51.994;4.448;2023-07-02T01:56:48;17.18;63.70
71291;DHT22;59073;51.994;4.448;2023-07-02T01:59:14;17.10;64.73
71291;DHT22;59073;51.994;4.448;2023-07-02T02:01:39;17.01;66.06
71291;DHT22;59073;51.994;4.448;2023-07-02T02:04:09;17.00;65.14
71291;DHT22;59073;51.994;4.448;2023-07-02T02:06:35;17.04;66.21
71291;DHT22;59073;51.994;4.448;2023-07-02T02:09:01;16.95;65.89
71291;DHT22;59073;51.994;4.448;2023-07-02T02:11:33;16.85;65.24
71291;DHT22;59073;51.994;4.448;2023-07-02T02:13:59;16.80;65.33
71291;DHT22;59073;51.994;4.448;2023-07-02T02:16:27;16.79;65.51
71291;DHT22;59073;51.994;4.448;2023-07-02T02:18:53;16.83;66.28
71291;DHT22;59073;51.994;4.448;2023-07-02T02:21:19;16.83;65.48
71291;DHT22;59073;51.994;4.448;2023-07-02T02:23:44;16.87;66.07
71291;DHT22;59073;51.994;4.448;2023-07-02T02:26:10;16.80;66.29
71291;DHT22;59073;51.994;4.448;2023-07-02T02:28:35;16.91;66.10
71291;DHT22;59073;51.994;4.448;2023-07-02T02:31:01;16.93;65.95
71291;DHT22;59073;51.994;4.448;2023-07-02T02:33:26;16.97;65.77
71291;DHT22;59073;51.994;4.448;2023-07-02T02:35:52;16.99;66.00
71291;DHT22;59073;51.994;4.448;2023-07-02T02:38:17;16.90;65.74
71291;DHT22;59073;51.994;4.448;2023-07-02T02:40:43;16.90;65.62
71291;DHT22;59073;51.994;4.448;2023-07-02T02:43:08;16.85;65.76
71291;DHT22;59073;51.994;4.448;2023-07-02T02:45:34;16.87;66.25
71291;DHT22;59073;51.994;4.448;2023-07-02T02:47:59;16.77;66.99
71291;DHT22;59073;51.994;4.448;2023-07-02T02:50:24;16.80;66.84
71291;DHT22;59073;51.994;4.448;2023-07-02T02:52:50;16.84;66.86
71291;DHT22;59073;51.994;4.448;2023-07-02T02:55:16;16.93;66.64
71291;DHT22;59073;51.994;4.448;2023-07-02T02:57:42;16.81;66.92
71291;DHT22;59073;51.994;4.448;2023-07-02T03:00:08;16.79;67.09
71291;DHT22;59073;51.994;4.448;2023-07-02T03:02:34;16.70;67.76
71291;DHT22;59073;51.994;4.448;2023-07-02T03:05:01;16.55;67.55
71291;DHT22;59073;51.994;4.448;2023-07-02T03:07:28;16.56;67.43
71291;DHT22;59073;51.994;4.448;2023-07-02T03:09:54;16.59;67.51
71291;DHT22;59073;51.994;4.448;2023-07-02T03:12:19;16.60;67.55
71291;DHT22;59073;51.994;4.448;2023-07-02T03:14:45;16.57;67.84
71291;DHT22;59073;51.994;4.448;2023-07-02T03:17:12;16.62;67.68
71291;DHT22;59073;51.994;4.448;2023-07-02T03:19:38;16.64;67.50
71291;DHT22;59073;51.994;4.448;2023-07-02T03:22:03;16.55;67.44
71291;DHT22;59073;51.994;4.448;2023-07-02T03:24:29;16.49;67.53
71291;DHT22;59073;51.994;4.448;2023-07-02T03:26:54;16.56;67.54
71291;DHT22;59073;51.994;4.448;2023-07-02T03:29:20;16.52;67.91
71291;DHT22;59073;51.994;4.448;2023-07-02T03:31:45;16.46;67.40
71291;DHT22;59073;51.994;4.448;2023-07-02T03:34:12;16.45;66.93
71291;DHT22;59073;51.994;4.448;2023-07-02T03:36:37;16.53;66.69
71291;DHT22;59073;51.994;4.448;2023-07-02T03:39:03;16.57;66.13
71291;DHT22;59073;51.994;4.448;2023-07-02T03:41:29;16.71;66.61
71291;DHT22;59073;51.994;4.448;2023-07-02T03:43:54;16.64;67.05
71291;DHT22;59073;51.994;4.448;2023-07-02T03:46:20;16.70;66.76
71291;DHT22;59073;51.994;4.448;2023-07-02T03:48:45;16.80;66.28
71291;DHT22;59073;51.994;4.448;2023-07-02T03:51:11;16.79;65.79
71291;DHT22;59073;51.994;4.448;2023-07-02T03:53:42;16.87;66.27
71291;DHT22;59073;51.994;4.448;2023-07-02T03:56:07;16.83;65.84
71291;DHT22;59073;51.994;4.448;2023-07-02T03:58:33;16.93;66.43
71291;DHT22;59073;51.994;4.448;2023-07-02T04:00:59;16.95;65.00
71291;DHT22;59073;51.994;4.448;2023-07-02T04:03:24;17.08;65.39
71291;DHT22;59073;51.994;4.448;2023-07-02T04:05:50;17.24;64.89
71291;DHT22;59073;51.994;4.448;2023-07-02T04:08:15;17.46;64.44
71291;DHT22;59073;51.994;4.448;2023-07-02T04:10:41;17.63;63.78
71291;DHT22;59073;51.994;4.448;2023-07-02T04:13:06;17.94;62.71
71291;DHT22;59073;51.994;4.448;2023-07-02T04:15:32;18.13;61.76
71291;DHT22;59073;51.994;4.448;2023-07-02T04:17:57;18.23;61.05
71291;DHT22;59073;51.994;4.448;2023-07-02T04:20:23;18.23;61.69
71291;DHT22;59073;51.994;4.448;2023-07-02T04:22:48;18.29;61.43
71291;DHT22;59073;51.994;4.448;2023-07-02T04:25:15;18.30;60.13
71291;DHT22;59073;51.994;4.448;2023-07-02T04:27:41;18.51;60.24
71291;DHT22;59073;51.994;4.448;2023-07-02T04:30:07;18.51;59.78
71291;DHT22;59073;51.994;4.448;2023-07-02T04:32:33;18.92;59.41
71291;DHT22;59073;51.994;4.448;2023-07-02T04:34:59;18.94;59.83
71291;DHT22;59073;51.994;4.448;2023-07-02T04:37:24;18.68;61.08
71291;DHT22;59073;51.994;4.448;2023-07-02T04:39:50;18.98;60.37
71291;DHT22;59073;51.994;4.448;2023-07-02T04:42:15;19.22;59.45
71291;DHT22;59073;51.994;4.448;2023-07-02T04:44:41;19.57;59.41
71291;DHT22;59073;51.994;4.448;2023-07-02T04:47:08;19.71;59.15
71291;DHT22;59073;51.994;4.448;2023-07-02T04:49:34;19.70;59.50
71291;DHT22;59073;51.994;4.448;2023-07-02T04:51:59;19.64;58.96
71291;DHT22;59073;51.994;4.448;2023-07-02T04:54:25;19.85;58.32
71291;DHT22;59073;51.994;4.448;2023-07-02T04:56:50;20.26;57.84
71291;DHT22;59073;51.994;4.448;2023-07-02T04:59:16;20.36;56.87
71291;DHT22;59073;51.994;4.448;2023-07-02T05:01:41;20.80;56.62
71291;DHT22;59073;51.994;4.448;2023-07-02T05:04:10;20.56;57.47
71291;DHT22;59073;51.994;4.448;2023-07-02T05:06:36;20.51;55.95
71291;DHT22;59073;51.994;4.448;2023-07-02T05:09:02;20.99;55.83
71291;DHT22;59073;51.994;4.448;2023-07-02T05:11:27;21.04;55.18
71291;DHT22;59073;51.994;4.448;2023-07-02T05:13:53;20.96;55.16
71291;DHT22;59073;51.994;4.448;2023-07-02T05:16:18;21.26;54.40
71291;DHT22;59073;51.994;4.448;2023-07-02T05:18:44;21.42;54.75
71291;DHT22;59073;51.994;4.448;2023-07-02T05:21:09;21.45;54.04
71291;DHT22;59073;51.994;4.448;2023-07-02T05:23:35;21.85;53.23
71291;DHT22;59073;51.994;4.448;2023-07-02T05:26:01;22.16;52.74
71291;DHT22;59073;51.994;4.448;2023-07-02T05:28:27;21.59;54.35
71291;DHT22;59073;51.994;4.448;2023-07-02T05:30:52;21.00;56.04
71291;DHT22;59073;51.994;4.448;2023-07-02T05:33:17;20.65;56.09
71291;DHT22;59073;51.994;4.448;2023-07-02T05:35:43;20.51;57.22
71291;DHT22;59073;51.994;4.448;2023-07-02T05:38:08;19.90;57.67
71291;DHT22;59073;51.994;4.448;2023-07-02T05:40:34;20.07;57.89
71291;DHT22;59073;51.994;4.448;2023-07-02T05:42:59;20.29;56.84
71291;DHT22;59073;51.994;4.448;2023-07-02T05:45:24;20.07;58.34
71291;DHT22;59073;51.994;4.448;2023-07-02T05:47:50;20.63;56.32
71291;DHT22;59073;51.994;4.448;2023-07-02T05:50:15;20.77;56.19
71291;DHT22;59073;51.994;4.448;2023-07-02T05:52:41;19.71;57.48
71291;DHT22;59073;51.994;4.448;2023-07-02T05:55:09;19.16;60.33
71291;DHT22;59073;51.994;4.448;2023-07-02T05:57:37;18.57;60.60
71291;DHT22;59073;51.994;4.448;2023-07-02T06:00:04;18.52;61.72
71291;DHT22;59073;51.994;4.448;2023-07-02T06:02:30;19.18;60.34
71291;DHT22;59073;51.994;4.448;2023-07-02T06:04:56;18.85;60.35
71291;DHT22;59073;51.994;4.448;2023-07-02T06:07:22;19.27;59.50
71291;DHT22;59073;51.994;4.448;2023-07-02T06:09:47;20.65;57.02
71291;DHT22;59073;51.994;4.448;2023-07-02T06:12:13;21.10;56.29
71291;DHT22;59073;51.994;4.448;2023-07-02T06:14:38;21.55;54.40
71291;DHT22;59073;51.994;4.448;2023-07-02T06:17:04;21.55;53.52
71291;DHT22;59073;51.994;4.448;2023-07-02T06:19:31;21.82;53.29
71291;DHT22;59073;51.994;4.448;2023-07-02T06:21:57;21.65;54.17
71291;DHT22;59073;51.994;4.448;2023-07-02T06:24:22;21.64;52.78
71291;DHT22;59073;51.994;4.448;2023-07-02T06:26:48;22.10;52.54
71291;DHT22;59073;51.994;4.448;2023-07-02T06:29:13;22.40;50.97
71291;DHT22;59073;51.994;4.448;2023-07-02T06:31:39;22.43;50.57
71291;DHT22;59073;51.994;4.448;2023-07-02T06:34:04;22.36;50.75
71291;DHT22;59073;51.994;4.448;2023-07-02T06:36:29;22.24;49.75
71291;DHT22;59073;51.994;4.448;2023-07-02T06:38:55;22.33;50.32
71291;DHT22;59073;51.994;4.448;2023-07-02T06:41:20;23.12;50.37
71291;DHT22;59073;51.994;4.448;2023-07-02T06:43:46;23.11;47.90
71291;DHT22;59073;51.994;4.448;2023-07-02T06:46:12;22.81;50.18
71291;DHT22;59073;51.994;4.448;2023-07-02T06:48:37;22.51;50.06
71291;DHT22;59073;51.994;4.448;2023-07-02T06:51:03;22.13;50.35
71291;DHT22;59073;51.994;4.448;2023-07-02T06:53:28;21.88;52.92
71291;DHT22;59073;51.994;4.448;2023-07-02T06:55:53;21.48;52.30
71291;DHT22;59073;51.994;4.448;2023-07-02T06:58:19;20.32;56.14
71291;DHT22;59073;51.994;4.448;2023-07-02T07:00:45;20.49;53.99
71291;DHT22;59073;51.994;4.448;2023-07-02T07:03:10;20.55;53.23
71291;DHT22;59073;51.994;4.448;2023-07-02T07:05:36;20.92;54.67
71291;DHT22;59073;51.994;4.448;2023-07-02T07:08:01;20.84;54.31
71291;DHT22;59073;51.994;4.448;2023-07-02T07:10:27;20.76;52.95
71291;DHT22;59073;51.994;4.448;2023-07-02T07:12:52;20.53;54.15
71291;DHT22;59073;51.994;4.448;2023-07-02T07:15:19;20.57;54.84
71291;DHT22;59073;51.994;4.448;2023-07-02T07:17:44;20.05;54.80
71291;DHT22;59073;51.994;4.448;2023-07-02T07:20:10;19.83;54.30
71291;DHT22;59073;51.994;4.448;2023-07-02T07:22:36;20.07;55.52
71291;DHT22;59073;51.994;4.448;2023-07-02T07:25:01;19.94;54.98
71291;DHT22;59073;51.994;4.448;2023-07-02T07:27:26;20.29;53.17
71291;DHT22;59073;51.994;4.448;2023-07-02T07:29:52;20.69;54.41
71291;DHT22;59073;51.994;4.448;2023-07-02T07:32:17;21.00;53.50
71291;DHT22;59073;51.994;4.448;2023-07-02T07:34:43;20.79;53.47
71291;DHT22;59073;51.994;4.448;2023-07-02T07:37:08;20.94;53.61
71291;DHT22;59073;51.994;4.448;2023-07-02T07:39:33;21.28;53.89
71291;DHT22;59073;51.994;4.448;2023-07-02T07:41:59;21.44;53.03
71291;DHT22;59073;51.994;4.448;2023-07-02T07:44:24;21.15;55.07
71291;DHT22;59073;51.994;4.448;2023-07-02T07:46:54;21.23;53.14
71291;DHT22;59073;51.994;4.448;2023-07-02T07:49:21;21.41;53.61
71291;DHT22;59073;51.994;4.448;2023-07-02T07:51:46;21.61;52.56
71291;DHT22;59073;51.994;4.448;2023-07-02T07:54:12;21.55;51.02
71291;DHT22;59073;51.994;4.448;2023-07-02T07:56:37;21.45;52.56
71291;DHT22;59073;51.994;4.448;2023-07-02T07:59:02;21.48;51.81
71291;DHT22;59073;51.994;4.448;2023-07-02T08:01:28;21.48;52.75
71291;DHT22;59073;51.994;4.448;2023-07-02T08:03:53;21.38;51.97
71291;DHT22;59073;51.994;4.448;2023-07-02T08:06:19;21.44;52.90
71291;DHT22;59073;51.994;4.448;2023-07-02T08:08:44;21.81;52.29
71291;DHT22;59073;51.994;4.448;2023-07-02T08:11:10;22.02;50.55
71291;DHT22;59073;51.994;4.448;2023-07-02T08:13:35;21.89;49.30
71291;DHT22;59073;51.994;4.448;2023-07-02T08:16:00;20.68;51.71
71291;DHT22;59073;51.994;4.448;2023-07-02T08:18:26;21.40;51.71
71291;DHT22;59073;51.994;4.448;2023-07-02T08:20:51;21.77;48.66
71291;DHT22;59073;51.994;4.448;2023-07-02T08:23:17;22.08;50.19
71291;DHT22;59073;51.994;4.448;2023-07-02T08:25:42;22.01;49.27
71291;DHT22;59073;51.994;4.448;2023-07-02T08:28:08;22.40;48.52
71291;DHT22;59073;51.994;4.448;2023-07-02T08:30:33;22.61;47.96
71291;DHT22;59073;51.994;4.448;2023-07-02T08:32:58;21.93;47.60
71291;DHT22;59073;51.994;4.448;2023-07-02T08:35:24;21.92;51.56
71291;DHT22;59073;51.994;4.448;2023-07-02T08:37:49;22.51;51.12
71291;DHT22;59073;51.994;4.448;2023-07-02T08:40:16;23.02;50.23
71291;DHT22;59073;51.994;4.448;2023-07-02T08:42:45;22.84;50.55
71291;DHT22;59073;51.994;4.448;2023-07-02T08:45:12;22.53;51.68
71291;DHT22;59073;51.994;4.448;2023-07-02T08:47:38;22.90;49.78
71291;DHT22;59073;51.994;4.448;2023-07-02T08:50:04;22.87;49.93
71291;DHT22;59073;51.994;4.448;2023-07-02T08:52:30;22.02;53.06
71291;DHT22;59073;51.994;4.448;2023-07-02T08:54:55;22.28;52.61
71291;DHT22;59073;51.994;4.448;2023-07-02T08:57:21;22.51;52.98
71291;DHT22;59073;51.994;4.448;2023-07-02T08:59:46;22.06;51.51
71291;DHT22;59073;51.994;4.448;2023-07-02T09:02:13;22.23;51.66
71291;DHT22;59073;51.994;4.448;2023-07-02T09:04:38;22.16;51.68
71291;DHT22;59073;51.994;4.448;2023-07-02T09:07:08;22.37;51.18
71291;DHT22;59073;51.994;4.448;2023-07-02T09:09:48;22.73;51.78
71291;DHT22;59073;51.994;4.448;2023-07-02T09:12:28;23.00;49.15
71291;DHT22;59073;51.994;4.448;2023-07-02T09:15:04;22.65;52.02
71291;DHT22;59073;51.994;4.448;2023-07-02T09:17:37;22.61;51.14
71291;DHT22;59073;51.994;4.448;2023-07-02T09:20:05;22.32;48.97
71291;DHT22;59073;51.994;4.448;2023-07-02T09:22:34;22.54;48.05
71291;DHT22;59073;51.994;4.448;2023-07-02T09:25:01;22.42;49.13
71291;DHT22;59073;51.994;4.448;2023-07-02T09:27:37;22.97;49.70
71291;DHT22;59073;51.994;4.448;2023-07-02T09:32:32;23.12;49.79
71291;DHT22;59073;51.994;4.448;2023-07-02T09:34:58;23.31;48.08
71291;DHT22;59073;51.994;4.448;2023-07-02T09:37:24;23.46;48.57
71291;DHT22;59073;51.994;4.448;2023-07-02T09:39:50;23.31;47.07
71291;DHT22;59073;51.994;4.448;2023-07-02T09:42:19;22.77;49.57
71291;DHT22;59073;51.994;4.448;2023-07-02T09:44:45;22.56;47.05
71291;DHT22;59073;51.994;4.448;2023-07-02T09:47:12;22.86;49.60
71291;DHT22;59073;51.994;4.448;2023-07-02T09:49:41;23.46;48.44
71291;DHT22;59073;51.994;4.448;2023-07-02T09:52:10;23.62;46.10
71291;DHT22;59073;51.994;4.448;2023-07-02T09:54:37;23.14;45.40
71291;DHT22;59073;51.994;4.448;2023-07-02T09:57:03;22.95;45.69
71291;DHT22;59073;51.994;4.448;2023-07-02T09:59:29;23.02;46.14
71291;DHT22;59073;51.994;4.448;2023-07-02T10:01:56;23.35;43.98
71291;DHT22;59073;51.994;4.448;2023-07-02T10:04:22;23.22;45.15
71291;DHT22;59073;51.994;4.448;2023-07-02T10:06:56;23.12;45.21
71291;DHT22;59073;51.994;4.448;2023-07-02T10:09:37;22.75;43.16
71291;DHT22;59073;51.994;4.448;2023-07-02T10:12:45;22.29;42.03
71291;DHT22;59073;51.994;4.448;2023-07-02T10:15:10;22.53;44.16
71291;DHT22;59073;51.994;4.448;2023-07-02T10:17:35;23.04;44.86
71291;DHT22;59073;51.994;4.448;2023-07-02T10:20:05;23.42;44.65
71291;DHT22;59073;51.994;4.448;2023-07-02T10:22:44;23.66;43.54
71291;DHT22;59073;51.994;4.448;2023-07-02T10:25:09;23.59;42.94
71291;DHT22;59073;51.994;4.448;2023-07-02T10:27:39;23.33;43.59
71291;DHT22;59073;51.994;4.448;2023-07-02T10:30:07;23.51;44.79
71291;DHT22;59073;51.994;4.448;2023-07-02T10:32:34;23.79;45.33
71291;DHT22;59073;51.994;4.448;2023-07-02T10:35:02;23.74;45.07
71291;DHT22;59073;51.994;4.448;2023-07-02T10:37:36;23.70;43.07
71291;DHT22;59073;51.994;4.448;2023-07-02T10:40:06;23.80;45.88
71291;DHT22;59073;51.994;4.448;2023-07-02T10:42:32;24.06;43.89
71291;DHT22;59073;51.994;4.448;2023-07-02T10:44:59;23.93;45.17
71291;DHT22;59073;51.994;4.448;2023-07-02T10:47:25;23.92;44.07
71291;DHT22;59073;51.994;4.448;2023-07-02T10:49:50;23.82;43.66
71291;DHT22;59073;51.994;4.448;2023-07-02T10:52:15;23.56;43.92
71291;DHT22;59073;51.994;4.448;2023-07-02T10:54:46;23.26;42.88
71291;DHT22;59073;51.994;4.448;2023-07-02T10:57:17;23.35;44.68
71291;DHT22;59073;51.994;4.448;2023-07-02T10:59:45;23.12;43.64
71291;DHT22;59073;51.994;4.448;2023-07-02T11:02:11;22.78;45.64
71291;DHT22;59073;51.994;4.448;2023-07-02T11:04:37;22.59;45.97
71291;DHT22;59073;51.994;4.448;2023-07-02T11:07:03;22.70;43.94
71291;DHT22;59073;51.994;4.448;2023-07-02T11:09:29;22.78;44.80
71291;DHT22;59073;51.994;4.448;2023-07-02T11:11:56;23.16;45.74
71291;DHT22;59073;51.994;4.448;2023-07-02T11:14:29;23.21;44.79
71291;DHT22;59073;51.994;4.448;2023-07-02T11:16:56;23.58;44.65
71291;DHT22;59073;51.994;4.448;2023-07-02T11:19:21;23.74;44.37
71291;DHT22;59073;51.994;4.448;2023-07-02T11:21:52;24.09;43.45
71291;DHT22;59073;51.994;4.448;2023-07-02T11:24:27;24.30;41.69
71291;DHT22;59073;51.994;4.448;2023-07-02T11:26:54;24.40;42.80
71291;DHT22;59073;51.994;4.448;2023-07-02T11:29:20;24.34;41.55
71291;DHT22;59073;51.994;4.448;2023-07-02T11:31:45;24.41;43.50
71291;DHT22;59073;51.994;4.448;2023-07-02T11:34:20;23.90;40.01
71291;DHT22;59073;51.994;4.448;2023-07-02T11:36:46;22.98;42.63
71291;DHT22;59073;51.994;4.448;2023-07-02T11:39:12;22.37;44.11
71291;DHT22;59073;51.994;4.448;2023-07-02T11:41:40;22.53;45.16
71291;DHT22;59073;51.994;4.448;2023-07-02T11:44:06;22.65;44.58
71291;DHT22;59073;51.994;4.448;2023-07-02T11:46:32;22.57;44.38
71291;DHT22;59073;51.994;4.448;2023-07-02T11:49:00;22.30;46.19
71291;DHT22;59073;51.994;4.448;2023-07-02T11:51:26;22.42;45.84
71291;DHT22;59073;51.994;4.448;2023-07-02T11:53:51;22.75;44.71
71291;DHT22;59073;51.994;4.448;2023-07-02T11:56:17;23.25;45.21
71291;DHT22;59073;51.994;4.448;2023-07-02T11:58:42;23.82;44.93
71291;DHT22;59073;51.994;4.448;2023-07-02T12:01:08;23.82;41.99
71291;DHT22;59073;51.994;4.448;2023-07-02T12:03:36;23.72;41.08
71291;DHT22;59073;51.994;4.448;2023-07-02T12:06:01;23.55;41.79
71291;DHT22;59073;51.994;4.448;2023-07-02T12:08:27;23.39;42.84
71291;DHT22;59073;51.994;4.448;2023-07-02T12:10:53;23.79;44.85
71291;DHT22;59073;51.994;4.448;2023-07-02T12:13:18;24.13;43.94
71291;DHT22;59073;51.994;4.448;2023-07-02T12:15:47;24.16;43.11
71291;DHT22;59073;51.994;4.448;2023-07-02T12:18:12;24.10;44.69
71291;DHT22;59073;51.994;4.448;2023-07-02T12:20:39;23.82;43.77
71291;DHT22;59073;51.994;4.448;2023-07-02T12:23:05;23.90;43.35
71291;DHT22;59073;51.994;4.448;2023-07-02T12:25:31;23.86;44.29
71291;DHT22;59073;51.994;4.448;2023-07-02T12:27:56;23.83;45.31
71291;DHT22;59073;51.994;4.448;2023-07-02T12:30:22;23.99;43.29
71291;DHT22;59073;51.994;4.448;2023-07-02T12:32:47;24.13;40.66
71291;DHT22;59073;51.994;4.448;2023-07-02T12:35:13;24.16;41.81
71291;DHT22;59073;51.994;4.448;2023-07-02T12:37:47;24.00;39.71
71291;DHT22;59073;51.994;4.448;2023-07-02T12:40:13;23.77;44.62
71291;DHT22;59073;51.994;4.448;2023-07-02T12:42:44;23.29;44.76
71291;DHT22;59073;51.994;4.448;2023-07-02T12:45:11;23.42;42.48
71291;DHT22;59073;51.994;4.448;2023-07-02T12:47:37;23.56;43.22
71291;DHT22;59073;51.994;4.448;2023-07-02T12:50:03;23.67;41.58
71291;DHT22;59073;51.994;4.448;2023-07-02T12:52:29;23.65;42.45
71291;DHT22;59073;51.994;4.448;2023-07-02T12:54:55;23.61;44.20
71291;DHT22;59073;51.994;4.448;2023-07-02T12:57:20;23.38;43.16
71291;DHT22;59073;51.994;4.448;2023-07-02T12:59:46;22.81;44.08
71291;DHT22;59073;51.994;4.448;2023-07-02T13:02:11;22.32;45.45
71291;DHT22;59073;51.994;4.448;2023-07-02T13:04:38;22.46;45.42
71291;DHT22;59073;51.994;4.448;2023-07-02T13:07:03;22.44;46.98
71291;DHT22;59073;51.994;4.448;2023-07-02T13:09:28;22.29;45.14
71291;DHT22;59073;51.994;4.448;2023-07-02T13:11:54;22.75;44.77
71291;DHT22;59073;51.994;4.448;2023-07-02T13:14:19;23.21;43.17
71291;DHT22;59073;51.994;4.448;2023-07-02T13:16:45;23.12;42.64
71291;DHT22;59073;51.994;4.448;2023-07-02T13:19:10;22.98;44.51
71291;DHT22;59073;51.994;4.448;2023-07-02T13:21:36;22.70;42.70
71291;DHT22;59073;51.994;4.448;2023-07-02T13:24:02;22.05;39.69
71291;DHT22;59073;51.994;4.448;2023-07-02T13:26:27;21.77;42.15
71291;DHT22;59073;51.994;4.448;2023-07-02T13:28:53;21.52;46.72
71291;DHT22;59073;51.994;4.448;2023-07-02T13:31:18;21.41;46.02
71291;DHT22;59073;51.994;4.448;2023-07-02T13:33:44;21.38;46.35
71291;DHT22;59073;51.994;4.448;2023-07-02T13:36:11;21.83;42.93
71291;DHT22;59073;51.994;4.448;2023-07-02T13:38:37;21.71;44.53
71291;DHT22;59073;51.994;4.448;2023-07-02T13:41:02;21.48;45.80
71291;DHT22;59073;51.994;4.448;2023-07-02T13:43:28;21.62;45.23
71291;DHT22;59073;51.994;4.448;2023-07-02T13:45:53;21.57;44.81
71291;DHT22;59073;51.994;4.448;2023-07-02T13:48:19;21.31;44.53
71291;DHT22;59073;51.994;4.448;2023-07-02T13:50:44;21.03;46.95
71291;DHT22;59073;51.994;4.448;2023-07-02T13:53:09;20.84;46.61
71291;DHT22;59073;51.994;4.448;2023-07-02T13:55:35;20.93;49.69
71291;DHT22;59073;51.994;4.448;2023-07-02T13:58:00;21.45;48.44
71291;DHT22;59073;51.994;4.448;2023-07-02T14:00:27;21.91;47.21
71291;DHT22;59073;51.994;4.448;2023-07-02T14:02:52;22.33;47.80
71291;DHT22;59073;51.994;4.448;2023-07-02T14:05:18;22.63;46.85
71291;DHT22;59073;51.994;4.448;2023-07-02T14:07:44;22.61;44.89
71291;DHT22;59073;51.994;4.448;2023-07-02T14:10:10;22.87;46.52
71291;DHT22;59073;51.994;4.448;2023-07-02T14:12:38;23.18;45.08
71291;DHT22;59073;51.994;4.448;2023-07-02T14:15:04;23.21;44.70
71291;DHT22;59073;51.994;4.448;2023-07-02T14:17:30;22.71;45.04
71291;DHT22;59073;51.994;4.448;2023-07-02T14:19:55;22.39;46.13
71291;DHT22;59073;51.994;4.448;2023-07-02T14:22:21;22.23;44.85
71291;DHT22;59073;51.994;4.448;2023-07-02T14:24:46;22.16;46.37
71291;DHT22;59073;51.994;4.448;2023-07-02T14:27:12;22.30;47.77
71291;DHT22;59073;51.994;4.448;2023-07-02T14:29:37;22.28;46.45
71291;DHT22;59073;51.994;4.448;2023-07-02T14:32:03;22.20;47.81
71291;DHT22;59073;51.994;4.448;2023-07-02T14:34:28;22.32;45.95
71291;DHT22;59073;51.994;4.448;2023-07-02T14:36:55;22.37;45.23
71291;DHT22;59073;51.994;4.448;2023-07-02T14:39:20;22.44;46.49
71291;DHT22;59073;51.994;4.448;2023-07-02T14:41:46;22.46;45.99
71291;DHT22;59073;51.994;4.448;2023-07-02T14:44:11;22.50;47.30
71291;DHT22;59073;51.994;4.448;2023-07-02T14:46:38;22.70;48.31
71291;DHT22;59073;51.994;4.448;2023-07-02T14:49:03;22.75;45.73
71291;DHT22;59073;51.994;4.448;2023-07-02T14:51:29;22.57;47.42
71291;DHT22;59073;51.994;4.448;2023-07-02T14:53:54;22.33;48.46
71291;DHT22;59073;51.994;4.448;2023-07-02T14:56:21;22.57;48.40
71291;DHT22;59073;51.994;4.448;2023-07-02T14:58:47;22.98;48.40
71291;DHT22;59073;51.994;4.448;2023-07-02T15:01:13;23.05;47.32
71291;DHT22;59073;51.994;4.448;2023-07-02T15:03:40;23.15;45.25
71291;DHT22;59073;51.994;4.448;2023-07-02T15:06:14;23.18;44.70
71291;DHT22;59073;51.994;4.448;2023-07-02T15:08:41;23.18;43.95
71291;DHT22;59073;51.994;4.448;2023-07-02T15:11:08;22.90;43.90
71291;DHT22;59073;51.994;4.448;2023-07-02T15:13:34;22.54;44.23
71291;DHT22;59073;51.994;4.448;2023-07-02T15:16:00;22.65;45.55
71291;DHT22;59073;51.994;4.448;2023-07-02T15:18:27;22.71;44.62
71291;DHT22;59073;51.994;4.448;2023-07-02T15:20:53;22.59;44.80
71291;DHT22;59073;51.994;4.448;2023-07-02T15:23:20;22.42;45.31
71291;DHT22;59073;51.994;4.448;2023-07-02T15:25:56;22.39;44.98
71291;DHT22;59073;51.994;4.448;2023-07-02T15:28:22;22.33;45.93